sensor_id;sensor_type;location;lat;lon;timestamp;P1;durP1;ratioP1;P2;durP2;ratioP2
19434;SDS011;9853;50.848;4.108;2023-02-23T00:02:29;67.95;;;33.28;;
19434;SDS011;9853;50.848;4.108;2023-02-23T00:05:25;68.90;;;32.70;;
19434;SDS011;9853;50.848;4.108;2023-02-23T00:08:45;65.18;;;32.05;;
19434;SDS011;9853;50.848;4.108;2023-02-23T00:15:00;71.55;;;33.80;;
19434;SDS011;9853;50.848;4.108;2023-02-23T00:17:20;69.85;;;34.08;;
19434;SDS011;9853;50.848;4.108;2023-02-23T00:19:58;69.55;;;33.33;;
19434;SDS011;9853;50.848;4.108;2023-02-23T00:22:34;66.97;;;34.20;;
19434;SDS011;9853;50.848;4.108;2023-02-23T00:24:43;73.60;;;34.38;;
19434;SDS011;9853;50.848;4.108;2023-02-23T00:27:28;64.95;;;33.63;;
19434;SDS011;9853;50.848;4.108;2023-02-23T00:29:45;71.35;;;35.05;;
19434;SDS011;9853;50.848;4.108;2023-02-23T00:32:28;77.72;;;35.05;;
19434;SDS011;9853;50.848;4.108;2023-02-23T00:38:10;72.57;;;34.45;;
19434;SDS011;9853;50.848;4.108;2023-02-23T00:44:14;72.45;;;34.13;;
19434;SDS011;9853;50.848;4.108;2023-02-23T00:47:14;74.35;;;34.53;;
19434;SDS011;9853;50.848;4.108;2023-02-23T00:53:14;71.50;;;34.22;;
19434;SDS011;9853;50.848;4.108;2023-02-23T00:55:58;69.72;;;34.22;;
19434;SDS011;9853;50.848;4.108;2023-02-23T01:01:42;72.13;;;33.40;;
19434;SDS011;9853;50.848;4.108;2023-02-23T01:07:58;77.90;;;34.85;;
19434;SDS011;9853;50.848;4.108;2023-02-23T01:16:59;81.97;;;35.03;;
19434;SDS011;9853;50.848;4.108;2023-02-23T01:19:23;91.95;;;36.65;;
19434;SDS011;9853;50.848;4.108;2023-02-23T01:22:34;80.47;;;35.40;;
19434;SDS011;9853;50.848;4.108;2023-02-23T01:27:12;90.30;;;37.17;;
19434;SDS011;9853;50.848;4.108;2023-02-23T01:39:46;82.75;;;35.55;;
19434;SDS011;9853;50.848;4.108;2023-02-23T01:42:58;82.40;;;34.67;;
19434;SDS011;9853;50.848;4.108;2023-02-23T01:49:17;85.22;;;33.78;;
19434;SDS011;9853;50.848;4.108;2023-02-23T01:52:34;88.35;;;34.10;;
19434;SDS011;9853;50.848;4.108;2023-02-23T02:05:07;81.00;;;32.13;;
19434;SDS011;9853;50.848;4.108;2023-02-23T02:07:46;76.82;;;32.33;;
19434;SDS011;9853;50.848;4.108;2023-02-23T02:14:14;83.40;;;33.72;;
19434;SDS011;9853;50.848;4.108;2023-02-23T02:28:46;81.25;;;34.08;;
19434;SDS011;9853;50.848;4.108;2023-02-23T02:32:25;83.80;;;34.35;;
19434;SDS011;9853;50.848;4.108;2023-02-23T02:45:36;82.38;;;34.83;;
19434;SDS011;9853;50.848;4.108;2023-02-23T02:53:44;84.03;;;32.67;;
19434;SDS011;9853;50.848;4.108;2023-02-23T02:56:31;89.57;;;34.00;;
19434;SDS011;9853;50.848;4.108;2023-02-23T02:59:11;98.20;;;36.00;;
19434;SDS011;9853;50.848;4.108;2023-02-23T03:02:05;103.80;;;35.42;;
19434;SDS011;9853;50.848;4.108;2023-02-23T03:04:58;91.35;;;35.00;;
19434;SDS011;9853;50.848;4.108;2023-02-23T03:07:44;99.38;;;35.00;;
19434;SDS011;9853;50.848;4.108;2023-02-23T03:16:08;93.00;;;36.20;;
19434;SDS011;9853;50.848;4.108;2023-02-23T03:21:21;93.80;;;35.95;;
19434;SDS011;9853;50.848;4.108;2023-02-23T03:30:03;84.78;;;33.65;;
19434;SDS011;9853;50.848;4.108;2023-02-23T03:33:28;93.57;;;36.10;;
19434;SDS011;9853;50.848;4.108;2023-02-23T04:07:54;83.00;;;35.30;;
19434;SDS011;9853;50.848;4.108;2023-02-23T04:10:38;81.85;;;35.00;;
19434;SDS011;9853;50.848;4.108;2023-02-23T04:13:30;82.88;;;34.35;;
19434;SDS011;9853;50.848;4.108;2023-02-23T04:19:02;86.68;;;34.78;;
19434;SDS011;9853;50.848;4.108;2023-02-23T04:22:00;81.47;;;35.50;;
19434;SDS011;9853;50.848;4.108;2023-02-23T04:25:12;79.00;;;34.08;;
19434;SDS011;9853;50.848;4.108;2023-02-23T04:27:53;75.63;;;34.85;;
19434;SDS011;9853;50.848;4.108;2023-02-23T04:31:03;71.22;;;31.33;;
19434;SDS011;9853;50.848;4.108;2023-02-23T04:33:51;74.00;;;33.08;;
19434;SDS011;9853;50.848;4.108;2023-02-23T04:43:39;92.80;;;39.17;;
19434;SDS011;9853;50.848;4.108;2023-02-23T05:02:18;87.88;;;36.17;;
19434;SDS011;9853;50.848;4.108;2023-02-23T05:05:27;108.35;;;39.13;;
19434;SDS011;9853;50.848;4.108;2023-02-23T05:11:15;98.43;;;37.25;;
19434;SDS011;9853;50.848;4.108;2023-02-23T05:14:08;93.72;;;35.78;;
19434;SDS011;9853;50.848;4.108;2023-02-23T05:16:53;114.75;;;41.17;;
19434;SDS011;9853;50.848;4.108;2023-02-23T05:19:24;101.80;;;37.75;;
19434;SDS011;9853;50.848;4.108;2023-02-23T05:21:43;103.63;;;38.67;;
19434;SDS011;9853;50.848;4.108;2023-02-23T05:27:25;109.93;;;40.30;;
19434;SDS011;9853;50.848;4.108;2023-02-23T05:29:52;121.28;;;40.95;;
19434;SDS011;9853;50.848;4.108;2023-02-23T05:32:23;114.15;;;41.42;;
19434;SDS011;9853;50.848;4.108;2023-02-23T05:35:07;104.75;;;38.13;;
19434;SDS011;9853;50.848;4.108;2023-02-23T05:38:07;106.07;;;41.22;;
19434;SDS011;9853;50.848;4.108;2023-02-23T05:40:53;117.85;;;42.53;;
19434;SDS011;9853;50.848;4.108;2023-02-23T05:48:31;122.72;;;43.60;;
19434;SDS011;9853;50.848;4.108;2023-02-23T05:50:37;116.93;;;41.20;;
19434;SDS011;9853;50.848;4.108;2023-02-23T05:53:35;116.00;;;40.45;;
19434;SDS011;9853;50.848;4.108;2023-02-23T05:56:03;117.88;;;42.03;;
19434;SDS011;9853;50.848;4.108;2023-02-23T05:58:30;110.50;;;40.72;;
19434;SDS011;9853;50.848;4.108;2023-02-23T06:04:10;112.15;;;40.95;;
19434;SDS011;9853;50.848;4.108;2023-02-23T06:06:45;97.45;;;36.58;;
19434;SDS011;9853;50.848;4.108;2023-02-23T06:08:45;104.03;;;40.97;;
19434;SDS011;9853;50.848;4.108;2023-02-23T06:10:46;105.70;;;40.10;;
19434;SDS011;9853;50.848;4.108;2023-02-23T06:12:47;101.95;;;37.92;;
19434;SDS011;9853;50.848;4.108;2023-02-23T06:14:48;93.53;;;35.83;;
19434;SDS011;9853;50.848;4.108;2023-02-23T06:16:49;87.13;;;35.30;;
19434;SDS011;9853;50.848;4.108;2023-02-23T06:18:50;92.18;;;36.05;;
19434;SDS011;9853;50.848;4.108;2023-02-23T06:20:51;86.75;;;35.70;;
19434;SDS011;9853;50.848;4.108;2023-02-23T06:22:52;96.15;;;37.67;;
19434;SDS011;9853;50.848;4.108;2023-02-23T06:24:52;91.43;;;36.90;;
19434;SDS011;9853;50.848;4.108;2023-02-23T06:26:53;88.03;;;36.25;;
19434;SDS011;9853;50.848;4.108;2023-02-23T06:28:54;87.72;;;38.67;;
19434;SDS011;9853;50.848;4.108;2023-02-23T06:30:56;98.68;;;42.47;;
19434;SDS011;9853;50.848;4.108;2023-02-23T06:32:56;93.97;;;38.15;;
19434;SDS011;9853;50.848;4.108;2023-02-23T06:34:57;89.32;;;37.72;;
19434;SDS011;9853;50.848;4.108;2023-02-23T06:36:58;82.05;;;37.50;;
19434;SDS011;9853;50.848;4.108;2023-02-23T06:38:59;98.03;;;41.83;;
19434;SDS011;9853;50.848;4.108;2023-02-23T06:41:05;87.13;;;38.70;;
19434;SDS011;9853;50.848;4.108;2023-02-23T06:43:10;89.82;;;37.88;;
19434;SDS011;9853;50.848;4.108;2023-02-23T06:45:11;87.40;;;40.40;;
19434;SDS011;9853;50.848;4.108;2023-02-23T06:47:12;87.82;;;37.38;;
19434;SDS011;9853;50.848;4.108;2023-02-23T06:49:13;84.50;;;37.47;;
19434;SDS011;9853;50.848;4.108;2023-02-23T07:13:15;98.70;;;37.85;;
19434;SDS011;9853;50.848;4.108;2023-02-23T07:15:16;104.55;;;39.40;;
19434;SDS011;9853;50.848;4.108;2023-02-23T07:17:19;95.13;;;40.50;;
19434;SDS011;9853;50.848;4.108;2023-02-23T07:19:20;95.45;;;39.00;;
19434;SDS011;9853;50.848;4.108;2023-02-23T07:21:20;93.65;;;39.75;;
19434;SDS011;9853;50.848;4.108;2023-02-23T07:23:21;94.00;;;39.42;;
19434;SDS011;9853;50.848;4.108;2023-02-23T07:25:35;91.97;;;37.92;;
19434;SDS011;9853;50.848;4.108;2023-02-23T07:27:36;96.47;;;39.60;;
19434;SDS011;9853;50.848;4.108;2023-02-23T07:29:37;92.05;;;38.58;;
19434;SDS011;9853;50.848;4.108;2023-02-23T07:31:38;92.65;;;40.58;;
19434;SDS011;9853;50.848;4.108;2023-02-23T07:33:39;97.03;;;39.58;;
19434;SDS011;9853;50.848;4.108;2023-02-23T07:35:40;99.88;;;40.70;;
19434;SDS011;9853;50.848;4.108;2023-02-23T07:37:42;95.25;;;38.67;;
19434;SDS011;9853;50.848;4.108;2023-02-23T07:39:42;89.32;;;38.63;;
19434;SDS011;9853;50.848;4.108;2023-02-23T07:41:43;91.25;;;37.92;;
19434;SDS011;9853;50.848;4.108;2023-02-23T07:43:53;90.68;;;38.65;;
19434;SDS011;9853;50.848;4.108;2023-02-23T07:45:57;87.75;;;37.92;;
19434;SDS011;9853;50.848;4.108;2023-02-23T07:47:59;95.25;;;39.13;;
19434;SDS011;9853;50.848;4.108;2023-02-23T07:50:00;87.68;;;36.90;;
19434;SDS011;9853;50.848;4.108;2023-02-23T07:52:02;87.85;;;38.85;;
19434;SDS011;9853;50.848;4.108;2023-02-23T07:54:03;87.15;;;39.25;;
19434;SDS011;9853;50.848;4.108;2023-02-23T07:56:05;86.85;;;38.22;;
19434;SDS011;9853;50.848;4.108;2023-02-23T07:58:07;91.25;;;38.83;;
19434;SDS011;9853;50.848;4.108;2023-02-23T08:00:08;87.47;;;38.08;;
19434;SDS011;9853;50.848;4.108;2023-02-23T08:02:13;87.70;;;39.67;;
19434;SDS011;9853;50.848;4.108;2023-02-23T08:04:14;80.43;;;38.05;;
19434;SDS011;9853;50.848;4.108;2023-02-23T08:06:15;87.40;;;38.83;;
19434;SDS011;9853;50.848;4.108;2023-02-23T08:08:17;84.53;;;38.08;;
19434;SDS011;9853;50.848;4.108;2023-02-23T08:10:18;84.82;;;39.88;;
19434;SDS011;9853;50.848;4.108;2023-02-23T08:12:19;83.00;;;39.58;;
19434;SDS011;9853;50.848;4.108;2023-02-23T08:14:20;89.82;;;39.85;;
19434;SDS011;9853;50.848;4.108;2023-02-23T08:16:22;97.25;;;41.03;;
19434;SDS011;9853;50.848;4.108;2023-02-23T08:18:23;105.32;;;40.97;;
19434;SDS011;9853;50.848;4.108;2023-02-23T08:20:24;94.03;;;40.05;;
19434;SDS011;9853;50.848;4.108;2023-02-23T08:22:26;91.30;;;39.72;;
19434;SDS011;9853;50.848;4.108;2023-02-23T08:24:27;97.65;;;40.55;;
19434;SDS011;9853;50.848;4.108;2023-02-23T08:26:29;97.55;;;41.95;;
19434;SDS011;9853;50.848;4.108;2023-02-23T08:28:30;91.20;;;40.10;;
19434;SDS011;9853;50.848;4.108;2023-02-23T08:30:32;97.57;;;41.72;;
19434;SDS011;9853;50.848;4.108;2023-02-23T08:32:33;96.72;;;41.55;;
19434;SDS011;9853;50.848;4.108;2023-02-23T08:34:38;97.10;;;41.55;;
19434;SDS011;9853;50.848;4.108;2023-02-23T08:36:40;101.90;;;41.90;;
19434;SDS011;9853;50.848;4.108;2023-02-23T08:38:41;104.93;;;42.10;;
19434;SDS011;9853;50.848;4.108;2023-02-23T08:40:41;99.30;;;41.80;;
19434;SDS011;9853;50.848;4.108;2023-02-23T08:42:42;99.38;;;40.65;;
19434;SDS011;9853;50.848;4.108;2023-02-23T08:44:44;104.82;;;40.80;;
19434;SDS011;9853;50.848;4.108;2023-02-23T08:46:45;107.60;;;42.22;;
19434;SDS011;9853;50.848;4.108;2023-02-23T08:48:46;111.15;;;42.65;;
19434;SDS011;9853;50.848;4.108;2023-02-23T08:50:47;111.03;;;42.00;;
19434;SDS011;9853;50.848;4.108;2023-02-23T08:52:48;111.45;;;42.15;;
19434;SDS011;9853;50.848;4.108;2023-02-23T08:54:49;100.80;;;43.13;;
19434;SDS011;9853;50.848;4.108;2023-02-23T08:56:50;110.45;;;43.33;;
19434;SDS011;9853;50.848;4.108;2023-02-23T08:58:55;106.97;;;42.53;;
19434;SDS011;9853;50.848;4.108;2023-02-23T09:00:56;108.55;;;42.92;;
19434;SDS011;9853;50.848;4.108;2023-02-23T09:02:57;103.53;;;42.25;;
19434;SDS011;9853;50.848;4.108;2023-02-23T09:04:58;97.25;;;41.47;;
19434;SDS011;9853;50.848;4.108;2023-02-23T09:06:59;102.88;;;42.20;;
19434;SDS011;9853;50.848;4.108;2023-02-23T09:09:01;101.80;;;40.67;;
19434;SDS011;9853;50.848;4.108;2023-02-23T09:11:02;94.97;;;40.42;;
19434;SDS011;9853;50.848;4.108;2023-02-23T09:13:02;91.70;;;40.72;;
19434;SDS011;9853;50.848;4.108;2023-02-23T09:15:04;105.47;;;42.10;;
19434;SDS011;9853;50.848;4.108;2023-02-23T09:17:05;99.30;;;40.20;;
19434;SDS011;9853;50.848;4.108;2023-02-23T09:19:05;99.22;;;41.67;;
19434;SDS011;9853;50.848;4.108;2023-02-23T09:21:07;97.97;;;40.15;;
19434;SDS011;9853;50.848;4.108;2023-02-23T09:23:17;94.97;;;40.08;;
19434;SDS011;9853;50.848;4.108;2023-02-23T09:25:18;90.30;;;39.53;;
19434;SDS011;9853;50.848;4.108;2023-02-23T09:27:22;86.72;;;38.20;;
19434;SDS011;9853;50.848;4.108;2023-02-23T09:29:22;77.53;;;35.47;;
19434;SDS011;9853;50.848;4.108;2023-02-23T09:31:23;83.03;;;35.67;;
19434;SDS011;9853;50.848;4.108;2023-02-23T09:33:24;71.82;;;33.95;;
19434;SDS011;9853;50.848;4.108;2023-02-23T09:35:25;72.15;;;34.80;;
19434;SDS011;9853;50.848;4.108;2023-02-23T09:37:26;70.97;;;33.90;;
19434;SDS011;9853;50.848;4.108;2023-02-23T09:39:26;63.97;;;32.55;;
19434;SDS011;9853;50.848;4.108;2023-02-23T09:44:01;68.45;;;33.05;;
19434;SDS011;9853;50.848;4.108;2023-02-23T09:48:10;70.65;;;32.45;;
19434;SDS011;9853;50.848;4.108;2023-02-23T09:50:20;64.97;;;32.30;;
19434;SDS011;9853;50.848;4.108;2023-02-23T09:52:25;69.00;;;33.22;;
19434;SDS011;9853;50.848;4.108;2023-02-23T09:54:47;63.67;;;32.15;;
19434;SDS011;9853;50.848;4.108;2023-02-23T09:56:48;73.63;;;34.53;;
19434;SDS011;9853;50.848;4.108;2023-02-23T09:58:50;74.68;;;34.95;;
19434;SDS011;9853;50.848;4.108;2023-02-23T10:03:20;67.93;;;33.00;;
19434;SDS011;9853;50.848;4.108;2023-02-23T10:05:27;68.60;;;33.75;;
19434;SDS011;9853;50.848;4.108;2023-02-23T10:12:28;67.45;;;33.15;;
19434;SDS011;9853;50.848;4.108;2023-02-23T10:15:14;77.97;;;34.70;;
19434;SDS011;9853;50.848;4.108;2023-02-23T10:17:33;72.15;;;34.25;;
19434;SDS011;9853;50.848;4.108;2023-02-23T10:19:55;77.25;;;35.67;;
19434;SDS011;9853;50.848;4.108;2023-02-23T10:22:02;68.97;;;33.42;;
19434;SDS011;9853;50.848;4.108;2023-02-23T10:26:17;71.88;;;33.15;;
19434;SDS011;9853;50.848;4.108;2023-02-23T10:28:21;71.15;;;33.08;;
19434;SDS011;9853;50.848;4.108;2023-02-23T10:30:23;72.35;;;34.17;;
19434;SDS011;9853;50.848;4.108;2023-02-23T10:34:56;76.15;;;34.90;;
19434;SDS011;9853;50.848;4.108;2023-02-23T10:36:59;76.70;;;35.50;;
19434;SDS011;9853;50.848;4.108;2023-02-23T10:39:04;75.25;;;35.17;;
19434;SDS011;9853;50.848;4.108;2023-02-23T10:41:06;74.75;;;35.92;;
19434;SDS011;9853;50.848;4.108;2023-02-23T10:43:09;80.43;;;35.90;;
19434;SDS011;9853;50.848;4.108;2023-02-23T10:45:12;76.38;;;36.42;;
19434;SDS011;9853;50.848;4.108;2023-02-23T10:47:23;79.93;;;35.53;;
19434;SDS011;9853;50.848;4.108;2023-02-23T10:49:40;68.47;;;34.13;;
19434;SDS011;9853;50.848;4.108;2023-02-23T10:51:50;76.82;;;35.63;;
19434;SDS011;9853;50.848;4.108;2023-02-23T10:53:51;72.18;;;33.42;;
19434;SDS011;9853;50.848;4.108;2023-02-23T10:58:18;69.57;;;33.17;;
19434;SDS011;9853;50.848;4.108;2023-02-23T11:02:21;66.38;;;32.17;;
19434;SDS011;9853;50.848;4.108;2023-02-23T11:04:24;62.97;;;30.98;;
19434;SDS011;9853;50.848;4.108;2023-02-23T11:06:28;62.17;;;30.52;;
19434;SDS011;9853;50.848;4.108;2023-02-23T11:08:41;58.83;;;30.45;;
19434;SDS011;9853;50.848;4.108;2023-02-23T11:10:41;53.45;;;28.90;;
19434;SDS011;9853;50.848;4.108;2023-02-23T11:12:53;51.92;;;28.27;;
19434;SDS011;9853;50.848;4.108;2023-02-23T11:14:55;56.90;;;29.25;;
19434;SDS011;9853;50.848;4.108;2023-02-23T11:16:57;54.70;;;27.50;;
19434;SDS011;9853;50.848;4.108;2023-02-23T11:19:00;56.83;;;28.67;;
19434;SDS011;9853;50.848;4.108;2023-02-23T11:21:02;57.80;;;28.95;;
19434;SDS011;9853;50.848;4.108;2023-02-23T11:23:11;59.90;;;28.50;;
19434;SDS011;9853;50.848;4.108;2023-02-23T11:25:29;58.03;;;28.42;;
19434;SDS011;9853;50.848;4.108;2023-02-23T11:27:31;58.67;;;28.65;;
19434;SDS011;9853;50.848;4.108;2023-02-23T11:29:37;61.22;;;29.15;;
19434;SDS011;9853;50.848;4.108;2023-02-23T11:31:40;59.30;;;29.08;;
19434;SDS011;9853;50.848;4.108;2023-02-23T11:33:47;59.30;;;29.85;;
19434;SDS011;9853;50.848;4.108;2023-02-23T11:35:49;68.93;;;30.50;;
19434;SDS011;9853;50.848;4.108;2023-02-23T11:37:58;64.57;;;30.35;;
19434;SDS011;9853;50.848;4.108;2023-02-23T11:40:29;55.03;;;30.33;;
19434;SDS011;9853;50.848;4.108;2023-02-23T11:42:32;60.08;;;29.00;;
19434;SDS011;9853;50.848;4.108;2023-02-23T11:44:32;60.35;;;30.23;;
19434;SDS011;9853;50.848;4.108;2023-02-23T11:46:36;60.22;;;30.42;;
19434;SDS011;9853;50.848;4.108;2023-02-23T11:49:21;56.75;;;29.00;;
19434;SDS011;9853;50.848;4.108;2023-02-23T11:51:04;56.92;;;27.98;;
19434;SDS011;9853;50.848;4.108;2023-02-23T11:53:12;59.13;;;28.20;;
19434;SDS011;9853;50.848;4.108;2023-02-23T11:55:16;62.03;;;28.83;;
19434;SDS011;9853;50.848;4.108;2023-02-23T11:57:22;60.97;;;28.95;;
19434;SDS011;9853;50.848;4.108;2023-02-23T11:59:29;63.38;;;28.58;;
19434;SDS011;9853;50.848;4.108;2023-02-23T12:03:51;56.88;;;28.92;;
19434;SDS011;9853;50.848;4.108;2023-02-23T12:05:54;58.15;;;29.92;;
19434;SDS011;9853;50.848;4.108;2023-02-23T12:08:03;56.83;;;29.38;;
19434;SDS011;9853;50.848;4.108;2023-02-23T12:10:20;57.53;;;28.52;;
19434;SDS011;9853;50.848;4.108;2023-02-23T12:12:28;58.67;;;29.25;;
19434;SDS011;9853;50.848;4.108;2023-02-23T12:14:45;58.22;;;28.35;;
19434;SDS011;9853;50.848;4.108;2023-02-23T12:16:50;57.67;;;30.48;;
19434;SDS011;9853;50.848;4.108;2023-02-23T12:19:05;56.38;;;28.15;;
19434;SDS011;9853;50.848;4.108;2023-02-23T12:21:32;57.90;;;28.30;;
19434;SDS011;9853;50.848;4.108;2023-02-23T12:23:42;59.58;;;27.70;;
19434;SDS011;9853;50.848;4.108;2023-02-23T12:27:54;53.40;;;26.77;;
19434;SDS011;9853;50.848;4.108;2023-02-23T12:30:25;50.90;;;26.38;;
19434;SDS011;9853;50.848;4.108;2023-02-23T12:34:43;57.75;;;29.02;;
19434;SDS011;9853;50.848;4.108;2023-02-23T12:36:56;60.78;;;28.52;;
19434;SDS011;9853;50.848;4.108;2023-02-23T12:39:02;58.53;;;28.15;;
19434;SDS011;9853;50.848;4.108;2023-02-23T12:43:38;49.55;;;26.88;;
19434;SDS011;9853;50.848;4.108;2023-02-23T12:45:53;50.30;;;25.38;;
19434;SDS011;9853;50.848;4.108;2023-02-23T12:48:11;51.58;;;26.83;;
19434;SDS011;9853;50.848;4.108;2023-02-23T12:50:38;53.92;;;25.73;;
19434;SDS011;9853;50.848;4.108;2023-02-23T12:52:46;56.50;;;26.77;;
19434;SDS011;9853;50.848;4.108;2023-02-23T12:54:52;57.47;;;28.40;;
19434;SDS011;9853;50.848;4.108;2023-02-23T13:01:35;61.72;;;28.55;;
19434;SDS011;9853;50.848;4.108;2023-02-23T13:03:53;58.25;;;28.73;;
19434;SDS011;9853;50.848;4.108;2023-02-23T13:06:14;57.40;;;26.83;;
19434;SDS011;9853;50.848;4.108;2023-02-23T13:13:37;57.45;;;27.70;;
19434;SDS011;9853;50.848;4.108;2023-02-23T13:20:05;54.08;;;26.70;;
19434;SDS011;9853;50.848;4.108;2023-02-23T13:24:35;54.63;;;27.45;;
19434;SDS011;9853;50.848;4.108;2023-02-23T13:27:13;60.45;;;28.48;;
19434;SDS011;9853;50.848;4.108;2023-02-23T13:31:35;58.70;;;28.40;;
19434;SDS011;9853;50.848;4.108;2023-02-23T13:33:37;58.45;;;27.88;;
19434;SDS011;9853;50.848;4.108;2023-02-23T13:35:39;52.42;;;26.90;;
19434;SDS011;9853;50.848;4.108;2023-02-23T13:37:54;54.25;;;26.25;;
19434;SDS011;9853;50.848;4.108;2023-02-23T13:44:37;50.20;;;25.63;;
19434;SDS011;9853;50.848;4.108;2023-02-23T13:46:53;53.17;;;26.25;;
19434;SDS011;9853;50.848;4.108;2023-02-23T13:53:44;54.92;;;26.90;;
19434;SDS011;9853;50.848;4.108;2023-02-23T13:55:56;52.45;;;24.27;;
19434;SDS011;9853;50.848;4.108;2023-02-23T13:58:31;49.20;;;24.05;;
19434;SDS011;9853;50.848;4.108;2023-02-23T14:00:29;50.47;;;23.38;;
19434;SDS011;9853;50.848;4.108;2023-02-23T14:02:36;56.55;;;25.88;;
19434;SDS011;9853;50.848;4.108;2023-02-23T14:04:39;36.35;;;19.05;;
19434;SDS011;9853;50.848;4.108;2023-02-23T14:06:49;41.00;;;18.98;;
19434;SDS011;9853;50.848;4.108;2023-02-23T14:08:59;33.53;;;16.67;;
19434;SDS011;9853;50.848;4.108;2023-02-23T14:13:57;30.38;;;16.58;;
19434;SDS011;9853;50.848;4.108;2023-02-23T14:16:07;39.63;;;19.83;;
19434;SDS011;9853;50.848;4.108;2023-02-23T14:20:19;38.38;;;19.42;;
19434;SDS011;9853;50.848;4.108;2023-02-23T14:27:34;34.92;;;18.75;;
19434;SDS011;9853;50.848;4.108;2023-02-23T14:34:48;36.88;;;18.73;;
19434;SDS011;9853;50.848;4.108;2023-02-23T14:36:49;35.13;;;18.35;;
19434;SDS011;9853;50.848;4.108;2023-02-23T14:40:55;35.00;;;16.98;;
19434;SDS011;9853;50.848;4.108;2023-02-23T14:42:57;35.58;;;17.67;;
19434;SDS011;9853;50.848;4.108;2023-02-23T14:45:35;49.80;;;19.95;;
19434;SDS011;9853;50.848;4.108;2023-02-23T14:47:41;38.38;;;19.35;;
19434;SDS011;9853;50.848;4.108;2023-02-23T14:49:50;43.33;;;19.58;;
19434;SDS011;9853;50.848;4.108;2023-02-23T14:51:57;38.33;;;18.60;;
19434;SDS011;9853;50.848;4.108;2023-02-23T14:54:21;38.05;;;19.02;;
19434;SDS011;9853;50.848;4.108;2023-02-23T14:56:24;38.83;;;19.17;;
19434;SDS011;9853;50.848;4.108;2023-02-23T14:58:30;34.63;;;17.10;;
19434;SDS011;9853;50.848;4.108;2023-02-23T15:00:40;35.38;;;17.70;;
19434;SDS011;9853;50.848;4.108;2023-02-23T15:04:58;37.28;;;18.27;;
19434;SDS011;9853;50.848;4.108;2023-02-23T15:06:59;38.78;;;18.55;;
19434;SDS011;9853;50.848;4.108;2023-02-23T15:09:01;38.05;;;19.33;;
19434;SDS011;9853;50.848;4.108;2023-02-23T15:11:06;39.33;;;18.48;;
19434;SDS011;9853;50.848;4.108;2023-02-23T15:15:36;39.83;;;19.50;;
19434;SDS011;9853;50.848;4.108;2023-02-23T15:17:45;37.20;;;17.13;;
19434;SDS011;9853;50.848;4.108;2023-02-23T15:19:49;34.85;;;19.05;;
19434;SDS011;9853;50.848;4.108;2023-02-23T15:21:55;35.35;;;17.88;;
19434;SDS011;9853;50.848;4.108;2023-02-23T15:24:03;38.03;;;18.33;;
19434;SDS011;9853;50.848;4.108;2023-02-23T15:26:25;38.00;;;18.63;;
19434;SDS011;9853;50.848;4.108;2023-02-23T15:28:33;36.17;;;18.80;;
19434;SDS011;9853;50.848;4.108;2023-02-23T15:30:43;35.70;;;17.50;;
19434;SDS011;9853;50.848;4.108;2023-02-23T15:32:45;32.35;;;15.93;;
19434;SDS011;9853;50.848;4.108;2023-02-23T15:34:47;34.05;;;15.98;;
19434;SDS011;9853;50.848;4.108;2023-02-23T15:36:50;33.85;;;17.00;;
19434;SDS011;9853;50.848;4.108;2023-02-23T15:39:13;39.53;;;17.13;;
19434;SDS011;9853;50.848;4.108;2023-02-23T15:41:50;41.38;;;16.55;;
19434;SDS011;9853;50.848;4.108;2023-02-23T15:43:47;35.53;;;16.40;;
19434;SDS011;9853;50.848;4.108;2023-02-23T15:45:48;36.30;;;16.08;;
19434;SDS011;9853;50.848;4.108;2023-02-23T15:47:51;32.35;;;15.25;;
19434;SDS011;9853;50.848;4.108;2023-02-23T15:50:11;33.95;;;17.02;;
19434;SDS011;9853;50.848;4.108;2023-02-23T15:52:26;34.45;;;16.38;;
19434;SDS011;9853;50.848;4.108;2023-02-23T15:54:31;28.83;;;14.98;;
19434;SDS011;9853;50.848;4.108;2023-02-23T15:56:35;29.13;;;15.73;;
19434;SDS011;9853;50.848;4.108;2023-02-23T15:58:37;37.42;;;16.52;;
19434;SDS011;9853;50.848;4.108;2023-02-23T16:00:43;28.42;;;14.95;;
19434;SDS011;9853;50.848;4.108;2023-02-23T16:02:50;27.85;;;14.13;;
19434;SDS011;9853;50.848;4.108;2023-02-23T16:04:51;27.33;;;14.20;;
19434;SDS011;9853;50.848;4.108;2023-02-23T16:06:53;28.90;;;14.70;;
19434;SDS011;9853;50.848;4.108;2023-02-23T16:11:23;25.80;;;13.85;;
19434;SDS011;9853;50.848;4.108;2023-02-23T16:13:24;24.13;;;12.77;;
19434;SDS011;9853;50.848;4.108;2023-02-23T16:15:27;20.92;;;11.30;;
19434;SDS011;9853;50.848;4.108;2023-02-23T16:17:45;18.00;;;10.40;;
19434;SDS011;9853;50.848;4.108;2023-02-23T16:19:47;21.42;;;10.75;;
19434;SDS011;9853;50.848;4.108;2023-02-23T16:21:51;23.05;;;11.15;;
19434;SDS011;9853;50.848;4.108;2023-02-23T16:23:56;19.45;;;10.35;;
19434;SDS011;9853;50.848;4.108;2023-02-23T16:26:04;17.52;;;9.82;;
19434;SDS011;9853;50.848;4.108;2023-02-23T16:28:11;17.77;;;9.85;;
19434;SDS011;9853;50.848;4.108;2023-02-23T16:32:22;15.90;;;8.93;;
19434;SDS011;9853;50.848;4.108;2023-02-23T16:34:28;14.05;;;8.02;;
19434;SDS011;9853;50.848;4.108;2023-02-23T16:36:36;11.90;;;8.02;;
19434;SDS011;9853;50.848;4.108;2023-02-23T16:38:40;15.70;;;9.43;;
19434;SDS011;9853;50.848;4.108;2023-02-23T16:41:01;13.25;;;8.75;;
19434;SDS011;9853;50.848;4.108;2023-02-23T16:43:03;15.85;;;9.27;;
19434;SDS011;9853;50.848;4.108;2023-02-23T16:45:04;12.52;;;8.90;;
19434;SDS011;9853;50.848;4.108;2023-02-23T16:49:08;16.65;;;10.05;;
19434;SDS011;9853;50.848;4.108;2023-02-23T16:51:14;18.73;;;9.23;;
19434;SDS011;9853;50.848;4.108;2023-02-23T16:53:19;16.02;;;9.75;;
19434;SDS011;9853;50.848;4.108;2023-02-23T16:55:23;14.60;;;9.65;;
19434;SDS011;9853;50.848;4.108;2023-02-23T16:57:26;13.15;;;9.32;;
19434;SDS011;9853;50.848;4.108;2023-02-23T16:59:29;13.10;;;9.05;;
19434;SDS011;9853;50.848;4.108;2023-02-23T17:01:30;14.50;;;9.63;;
19434;SDS011;9853;50.848;4.108;2023-02-23T17:03:32;16.02;;;9.73;;
19434;SDS011;9853;50.848;4.108;2023-02-23T17:05:32;15.38;;;9.65;;
19434;SDS011;9853;50.848;4.108;2023-02-23T17:07:33;15.93;;;9.85;;
19434;SDS011;9853;50.848;4.108;2023-02-23T17:09:35;18.73;;;9.48;;
19434;SDS011;9853;50.848;4.108;2023-02-23T17:11:36;15.52;;;9.55;;
19434;SDS011;9853;50.848;4.108;2023-02-23T17:13:37;22.98;;;10.38;;
19434;SDS011;9853;50.848;4.108;2023-02-23T17:15:39;17.20;;;10.07;;
19434;SDS011;9853;50.848;4.108;2023-02-23T17:17:47;19.60;;;10.40;;
19434;SDS011;9853;50.848;4.108;2023-02-23T17:19:47;17.20;;;10.05;;
19434;SDS011;9853;50.848;4.108;2023-02-23T17:21:48;15.82;;;9.48;;
19434;SDS011;9853;50.848;4.108;2023-02-23T17:23:50;17.75;;;10.35;;
19434;SDS011;9853;50.848;4.108;2023-02-23T17:25:51;17.73;;;9.90;;
19434;SDS011;9853;50.848;4.108;2023-02-23T17:27:53;14.85;;;9.50;;
19434;SDS011;9853;50.848;4.108;2023-02-23T17:29:54;16.77;;;10.07;;
19434;SDS011;9853;50.848;4.108;2023-02-23T17:31:54;17.73;;;10.13;;
19434;SDS011;9853;50.848;4.108;2023-02-23T17:33:58;14.93;;;9.10;;
19434;SDS011;9853;50.848;4.108;2023-02-23T17:35:59;21.10;;;9.63;;
19434;SDS011;9853;50.848;4.108;2023-02-23T17:38:01;18.67;;;9.95;;
19434;SDS011;9853;50.848;4.108;2023-02-23T17:40:08;19.88;;;9.50;;
19434;SDS011;9853;50.848;4.108;2023-02-23T17:42:11;15.23;;;9.07;;
19434;SDS011;9853;50.848;4.108;2023-02-23T17:44:13;19.65;;;11.95;;
19434;SDS011;9853;50.848;4.108;2023-02-23T17:46:14;19.38;;;9.73;;
19434;SDS011;9853;50.848;4.108;2023-02-23T17:48:14;24.05;;;10.77;;
19434;SDS011;9853;50.848;4.108;2023-02-23T17:50:16;23.25;;;9.93;;